createdAt,value
2018-06-21T00:00:39.832Z,0
2018-06-21T00:01:39.898Z,0
2018-06-21T00:02:39.897Z,0
2018-06-21T00:03:39.896Z,0
2018-06-21T00:04:39.899Z,0
2018-06-21T00:05:39.884Z,0
2018-06-21T00:06:39.816Z,0
2018-06-21T00:07:39.826Z,0
2018-06-21T00:08:39.803Z,0
2018-06-21T00:09:39.819Z,0
2018-06-21T00:10:39.824Z,0
2018-06-21T00:11:39.897Z,0
2018-06-21T00:12:39.774Z,0
2018-06-21T00:13:39.830Z,0
2018-06-21T00:14:39.776Z,0
2018-06-21T00:15:39.850Z,0
2018-06-21T00:16:39.944Z,0
2018-06-21T00:17:39.907Z,0
2018-06-21T00:18:40.009Z,0
2018-06-21T00:19:39.833Z,0
2018-06-21T00:26:55.876Z,0
2018-06-21T00:27:39.902Z,0
2018-06-21T00:32:39.878Z,0
2018-06-21T00:33:39.891Z,0
2018-06-21T00:34:39.915Z,0
2018-06-21T00:35:39.837Z,0
2018-06-21T00:36:39.913Z,0
2018-06-21T00:37:39.875Z,0
2018-06-21T00:38:39.793Z,0
2018-06-21T00:39:39.862Z,0
2018-06-21T00:40:39.918Z,0
2018-06-21T00:41:39.841Z,0
2018-06-21T00:42:39.880Z,0
2018-06-21T00:43:39.878Z,0
2018-06-21T00:44:39.918Z,0
2018-06-21T00:45:39.926Z,0
2018-06-21T00:46:39.854Z,0
2018-06-21T00:47:39.827Z,0
2018-06-21T00:48:39.927Z,0
2018-06-21T00:49:39.927Z,0
2018-06-21T00:50:39.929Z,0
2018-06-21T00:51:39.861Z,0
2018-06-21T00:52:39.862Z,0
2018-06-21T00:53:39.933Z,0
2018-06-21T00:54:39.933Z,0
2018-06-21T00:55:39.892Z,0
2018-06-21T00:56:39.936Z,0
2018-06-21T00:57:39.869Z,0
2018-06-21T00:58:39.881Z,0
2018-06-21T00:59:39.967Z,0
2018-06-21T01:00:39.833Z,0
2018-06-21T01:01:39.878Z,0
2018-06-21T01:02:39.909Z,0
2018-06-21T01:03:39.937Z,0
2018-06-21T01:04:39.938Z,0
2018-06-21T01:05:39.929Z,0
2018-06-21T01:06:39.936Z,0
2018-06-21T01:07:39.858Z,0
2018-06-21T01:08:39.877Z,0
2018-06-21T01:09:39.937Z,0
2018-06-21T01:10:39.865Z,0
2018-06-21T01:11:39.847Z,0
2018-06-21T01:12:39.932Z,0
2018-06-21T01:13:39.884Z,0
2018-06-21T01:14:39.938Z,0
2018-06-21T01:15:39.910Z,0
2018-06-21T01:16:39.907Z,0
2018-06-21T01:17:39.912Z,0
2018-06-21T01:18:39.911Z,0
2018-06-21T01:19:39.970Z,0
2018-06-21T01:20:39.953Z,0
2018-06-21T01:21:39.908Z,0
2018-06-21T01:22:39.850Z,0
2018-06-21T01:23:39.978Z,0
2018-06-21T01:24:39.974Z,0
2018-06-21T01:25:39.968Z,0
2018-06-21T01:26:39.929Z,0
2018-06-21T01:27:39.860Z,0
2018-06-21T01:28:39.971Z,0
2018-06-21T01:29:39.855Z,0
2018-06-21T01:30:39.857Z,0
2018-06-21T01:31:39.862Z,0
2018-06-21T01:32:39.989Z,0
2018-06-21T01:33:39.997Z,0
2018-06-21T01:34:39.867Z,0
2018-06-21T01:35:39.988Z,0
2018-06-21T01:36:39.996Z,0
2018-06-21T01:37:39.898Z,0
2018-06-21T01:38:39.984Z,0
2018-06-21T01:39:39.864Z,0
2018-06-21T01:40:39.978Z,0
2018-06-21T01:41:39.960Z,0
2018-06-21T01:42:40.004Z,0
2018-06-21T01:43:39.871Z,0
2018-06-21T01:44:40.040Z,0
2018-06-21T01:45:39.992Z,0
2018-06-21T01:46:39.864Z,0
2018-06-21T01:47:39.867Z,0
2018-06-21T01:48:39.968Z,0
2018-06-21T01:49:39.938Z,0
2018-06-21T01:50:40.005Z,0
2018-06-21T01:51:39.925Z,0
2018-06-21T01:52:39.942Z,0
2018-06-21T01:53:39.968Z,0
2018-06-21T01:54:39.953Z,0
2018-06-21T01:55:39.950Z,0
2018-06-21T01:56:39.936Z,0
2018-06-21T01:57:39.975Z,0
2018-06-21T01:58:40.020Z,0
2018-06-21T01:59:40.033Z,0
2018-06-21T02:00:39.947Z,0
2018-06-21T02:01:39.918Z,0
2018-06-21T02:02:39.948Z,0
2018-06-21T02:03:39.917Z,0
2018-06-21T02:04:39.896Z,0
2018-06-21T02:05:39.978Z,0
2018-06-21T02:06:39.917Z,0
2018-06-21T02:07:39.911Z,0
2018-06-21T02:08:39.984Z,0
2018-06-21T02:09:39.918Z,4
2018-06-21T02:10:39.982Z,4
2018-06-21T02:11:39.917Z,4
2018-06-21T02:12:39.913Z,4
2018-06-21T02:13:39.989Z,4
2018-06-21T02:14:39.919Z,0
2018-06-21T02:15:39.950Z,4
2018-06-21T02:16:39.913Z,4
2018-06-21T02:17:39.910Z,4
2018-06-21T02:18:39.948Z,8
2018-06-21T02:19:40.015Z,4
2018-06-21T02:20:39.945Z,8
2018-06-21T02:21:39.986Z,8
2018-06-21T02:22:39.931Z,8
2018-06-21T02:23:39.954Z,12
2018-06-21T02:24:39.893Z,12
2018-06-21T02:25:39.986Z,12
2018-06-21T02:26:39.982Z,16
2018-06-21T02:27:39.919Z,20
2018-06-21T02:28:39.934Z,20
2018-06-21T02:29:39.899Z,24
2018-06-21T02:30:39.991Z,28
2018-06-21T02:31:39.901Z,28
2018-06-21T02:32:39.995Z,36
2018-06-21T02:33:39.992Z,40
2018-06-21T02:34:39.990Z,44
2018-06-21T02:35:39.995Z,48
2018-06-21T02:36:39.997Z,52
2018-06-21T02:37:40.011Z,64
2018-06-21T02:38:40.022Z,68
2018-06-21T02:39:40.031Z,76
2018-06-21T02:40:40.000Z,84
2018-06-21T02:41:40.034Z,92
2018-06-21T02:42:39.967Z,104
2018-06-21T02:43:40.027Z,116
2018-06-21T02:44:39.974Z,128
2018-06-21T02:45:40.027Z,144
2018-06-21T02:46:39.934Z,164
2018-06-21T02:47:39.899Z,180
2018-06-21T02:48:39.873Z,200
2018-06-21T02:49:39.934Z,220
2018-06-21T02:50:39.935Z,244
2018-06-21T02:51:39.929Z,268
2018-06-21T02:52:40.005Z,292
2018-06-21T02:53:39.904Z,324
2018-06-21T02:54:39.971Z,356
2018-06-21T02:55:39.904Z,384
2018-06-21T02:56:40.016Z,424
2018-06-21T02:57:39.963Z,460
2018-06-21T02:58:39.985Z,500
2018-06-21T02:59:40.057Z,536
2018-06-21T03:00:39.918Z,584
2018-06-21T03:01:40.013Z,628
2018-06-21T03:02:39.936Z,676
2018-06-21T03:03:39.924Z,724
2018-06-21T03:04:40.020Z,776
2018-06-21T03:05:39.956Z,832
2018-06-21T03:06:40.018Z,888
2018-06-21T03:07:40.046Z,948
2018-06-21T03:08:39.992Z,1016
2018-06-21T03:09:40.051Z,1084
2018-06-21T03:10:40.048Z,1152
2018-06-21T03:11:39.924Z,1224
2018-06-21T03:12:40.060Z,1300
2018-06-21T03:13:40.045Z,1368
2018-06-21T03:14:40.002Z,1448
2018-06-21T03:15:39.994Z,1524
2018-06-21T03:16:39.957Z,1612
2018-06-21T03:17:39.963Z,1696
2018-06-21T03:18:40.027Z,1772
2018-06-21T03:19:39.968Z,1860
2018-06-21T03:20:40.031Z,1956
2018-06-21T03:21:39.984Z,2052
2018-06-21T03:22:40.029Z,2160
2018-06-21T03:23:40.028Z,2268
2018-06-21T03:24:40.029Z,2380
2018-06-21T03:25:40.027Z,2488
2018-06-21T03:26:39.934Z,2604
2018-06-21T03:27:40.050Z,2716
2018-06-21T03:28:39.967Z,2832
2018-06-21T03:29:40.030Z,2952
2018-06-21T03:30:40.030Z,3104
2018-06-21T03:31:39.971Z,3236
2018-06-21T03:32:39.958Z,3352
2018-06-21T03:33:39.927Z,3472
2018-06-21T03:34:39.944Z,3580
2018-06-21T03:35:39.993Z,3700
2018-06-21T03:36:39.972Z,3836
2018-06-21T03:37:40.040Z,3952
2018-06-21T03:38:39.975Z,4072
2018-06-21T03:39:40.005Z,4124
2018-06-21T03:40:39.976Z,4276
2018-06-21T03:41:39.976Z,4424
2018-06-21T03:42:40.046Z,4572
2018-06-21T03:43:40.051Z,4716
2018-06-21T03:44:39.973Z,4860
2018-06-21T03:45:40.045Z,4984
2018-06-21T03:46:39.989Z,5132
2018-06-21T03:47:39.897Z,5276
2018-06-21T03:48:39.897Z,5520
2018-06-21T03:49:39.997Z,5656
2018-06-21T03:50:39.898Z,5848
2018-06-21T03:51:39.995Z,5956
2018-06-21T03:52:39.994Z,6048
2018-06-21T03:53:39.946Z,6116
2018-06-21T03:54:39.901Z,6180
2018-06-21T03:55:39.991Z,6212
2018-06-21T03:56:39.920Z,6320
2018-06-21T03:57:40.004Z,6420
2018-06-21T03:58:39.955Z,6576
2018-06-21T03:59:39.925Z,6708
2018-06-21T04:00:40.007Z,6852
2018-06-21T04:01:39.964Z,7000
2018-06-21T04:02:39.923Z,7144
2018-06-21T04:03:40.071Z,7420
2018-06-21T04:04:39.958Z,7672
2018-06-21T04:05:39.988Z,8096
2018-06-21T04:06:40.029Z,8620
2018-06-21T04:07:40.035Z,8812
2018-06-21T04:08:40.094Z,9108
2018-06-21T04:09:40.061Z,9268
2018-06-21T04:10:39.964Z,9752
2018-06-21T04:11:40.019Z,10552
2018-06-21T04:12:40.037Z,11136
2018-06-21T04:13:40.036Z,11260
2018-06-21T04:14:40.025Z,10136
2018-06-21T04:15:40.066Z,9152
2018-06-21T04:16:40.028Z,8596
2018-06-21T04:17:40.005Z,8072
2018-06-21T04:18:40.081Z,7836
2018-06-21T04:19:40.101Z,7916
2018-06-21T04:20:40.000Z,7764
2018-06-21T04:21:40.067Z,7900
2018-06-21T04:22:40.000Z,8000
2018-06-21T04:23:40.068Z,8448
2018-06-21T04:24:40.032Z,8832
2018-06-21T04:25:40.005Z,9272
2018-06-21T04:26:40.055Z,9348
2018-06-21T04:27:40.096Z,10080
2018-06-21T04:28:39.994Z,10496
2018-06-21T04:29:40.112Z,10428
2018-06-21T04:30:39.975Z,10576
2018-06-21T04:31:40.077Z,10516
2018-06-21T04:32:40.055Z,10484
2018-06-21T04:33:39.980Z,10528
2018-06-21T04:34:39.983Z,10480
2018-06-21T04:35:40.044Z,10728
2018-06-21T04:36:39.985Z,10984
2018-06-21T04:37:39.998Z,11580
2018-06-21T04:38:40.082Z,11900
2018-06-21T04:39:40.098Z,12748
2018-06-21T04:40:40.079Z,13072
2018-06-21T04:41:39.999Z,12628
2018-06-21T04:42:40.104Z,12304
2018-06-21T04:43:40.122Z,12220
2018-06-21T04:44:40.085Z,12920
2018-06-21T04:45:40.082Z,13164
2018-06-21T04:46:40.074Z,13100
2018-06-21T04:47:39.957Z,13072
2018-06-21T04:48:40.077Z,13596
2018-06-21T04:49:40.080Z,14112
2018-06-21T04:50:39.992Z,13960
2018-06-21T04:51:39.988Z,13784
2018-06-21T04:52:40.036Z,14532
2018-06-21T04:53:40.235Z,15836
2018-06-21T04:54:40.085Z,16668
2018-06-21T04:55:39.998Z,17400
2018-06-21T04:56:40.092Z,18212
2018-06-21T04:57:40.029Z,18744
2018-06-21T04:58:40.025Z,19544
2018-06-21T04:59:40.092Z,19892
2018-06-21T05:00:40.032Z,19592
2018-06-21T05:01:40.032Z,19408
2018-06-21T05:02:40.030Z,18864
2018-06-21T05:03:40.035Z,19928
2018-06-21T05:04:40.096Z,21536
2018-06-21T05:05:40.100Z,22464
2018-06-21T05:06:40.113Z,21016
2018-06-21T05:07:40.065Z,21384
2018-06-21T05:08:40.054Z,21272
2018-06-21T05:09:40.055Z,21168
2018-06-21T05:10:40.073Z,20736
2018-06-21T05:11:40.098Z,20544
2018-06-21T05:12:40.065Z,21348
2018-06-21T05:13:40.081Z,22304
2018-06-21T05:14:40.104Z,22400
2018-06-21T05:15:40.137Z,22944
2018-06-21T05:16:40.055Z,22752
2018-06-21T05:17:40.013Z,22816
2018-06-21T05:18:40.100Z,22076
2018-06-21T05:19:40.008Z,24096
2018-06-21T05:20:40.015Z,24864
2018-06-21T05:21:40.101Z,22816
2018-06-21T05:22:40.110Z,21776
2018-06-21T05:23:39.978Z,24832
2018-06-21T05:24:40.119Z,27424
2018-06-21T05:25:40.111Z,28608
2018-06-21T05:26:40.141Z,28832
2018-06-21T05:27:40.073Z,27968
2018-06-21T05:28:40.111Z,27232
2018-06-21T05:29:40.017Z,24864
2018-06-21T05:30:40.033Z,25216
2018-06-21T05:31:40.118Z,26816
2018-06-21T05:32:40.014Z,26464
2018-06-21T05:33:40.148Z,24640
2018-06-21T05:34:40.088Z,23168
2018-06-21T05:35:40.039Z,24128
2018-06-21T05:36:40.039Z,27296
2018-06-21T05:37:40.032Z,27040
2018-06-21T05:38:40.028Z,27744
2018-06-21T05:39:39.991Z,30240
2018-06-21T05:40:40.027Z,32352
2018-06-21T05:41:40.010Z,31840
2018-06-21T05:42:40.058Z,29984
2018-06-21T05:43:40.012Z,30176
2018-06-21T05:44:40.107Z,37056
2018-06-21T05:45:39.998Z,41824
2018-06-21T05:46:40.059Z,39840
2018-06-21T05:47:40.063Z,30304
2018-06-21T05:48:40.016Z,33152
2018-06-21T05:49:40.130Z,36064
2018-06-21T05:50:40.126Z,34144
2018-06-21T05:51:40.059Z,29312
2018-06-21T05:52:40.101Z,26976
2018-06-21T05:53:40.137Z,31136
2018-06-21T05:54:40.013Z,30688
2018-06-21T05:55:40.069Z,33504
2018-06-21T05:56:40.165Z,51040
2018-06-21T05:57:40.074Z,55840
2018-06-21T05:58:40.064Z,58400
2018-06-21T05:59:40.066Z,54304
2018-06-21T06:00:40.072Z,51968
2018-06-21T06:01:40.132Z,52544
2018-06-21T06:02:40.069Z,45216
2018-06-21T06:03:40.174Z,42560
2018-06-21T06:04:40.133Z,44096
2018-06-21T06:05:40.201Z,46720
2018-06-21T06:06:40.098Z,60000
2018-06-21T06:07:40.098Z,61920
2018-06-21T06:08:40.036Z,56928
2018-06-21T06:09:40.070Z,58656
2018-06-21T06:10:40.034Z,67296
2018-06-21T06:11:40.073Z,68768
2018-06-21T06:12:40.126Z,70944
2018-06-21T06:13:40.126Z,72832
2018-06-21T06:14:40.104Z,71648
2018-06-21T06:15:40.045Z,80064
2018-06-21T06:16:40.142Z,81568
2018-06-21T06:17:40.081Z,89568
2018-06-21T06:18:40.195Z,92512
2018-06-21T06:19:40.140Z,59584
2018-06-21T06:20:40.150Z,67584
2018-06-21T06:21:40.077Z,74560
2018-06-21T06:22:40.151Z,50400
2018-06-21T06:23:40.082Z,64096
2018-06-21T06:24:40.086Z,67584
2018-06-21T06:25:40.154Z,57568
2018-06-21T06:26:40.154Z,64320
2018-06-21T06:27:40.082Z,64672
2018-06-21T06:28:40.175Z,63008
2018-06-21T06:29:40.155Z,73248
2018-06-21T06:30:40.152Z,66048
2018-06-21T06:31:40.085Z,60288
2018-06-21T06:32:40.091Z,59776
2018-06-21T06:33:40.157Z,59424
2018-06-21T06:34:40.179Z,62624
2018-06-21T06:35:40.090Z,59232
2018-06-21T06:36:40.155Z,62720
2018-06-21T06:37:40.091Z,61856
2018-06-21T06:38:40.109Z,59104
2018-06-21T06:39:40.099Z,66080
2018-06-21T06:40:40.094Z,61280
2018-06-21T06:41:40.131Z,69088
2018-06-21T06:42:40.161Z,69056
2018-06-21T06:43:40.135Z,65600
2018-06-21T06:44:40.093Z,64864
2018-06-21T06:45:40.097Z,66048
2018-06-21T06:46:40.123Z,63776
2018-06-21T06:47:40.070Z,60832
2018-06-21T06:48:40.142Z,66752
2018-06-21T06:49:40.135Z,55680
2018-06-21T06:50:40.169Z,53536
2018-06-21T06:51:40.105Z,55296
2018-06-21T06:52:40.087Z,56064
2018-06-21T06:53:40.193Z,67360
2018-06-21T06:54:40.252Z,68288
2018-06-21T06:55:40.201Z,68608
2018-06-21T06:56:40.037Z,78784
2018-06-21T06:57:40.165Z,65600
2018-06-21T06:58:40.167Z,63744
2018-06-21T06:59:40.077Z,100640
2018-06-21T07:00:40.078Z,84256
2018-06-21T07:01:40.164Z,59872
2018-06-21T07:02:40.052Z,59712
2018-06-21T07:03:40.177Z,60096
2018-06-21T07:04:40.083Z,58432
2018-06-21T07:05:40.061Z,61376
2018-06-21T07:06:40.153Z,67360
2018-06-21T07:07:40.205Z,63168
2018-06-21T07:08:40.157Z,61536
2018-06-21T07:09:40.178Z,56448
2018-06-21T07:10:40.146Z,48096
2018-06-21T07:11:40.149Z,46080
2018-06-21T07:12:40.151Z,48832
2018-06-21T07:13:40.146Z,52256
2018-06-21T07:14:40.202Z,56000
2018-06-21T07:15:40.162Z,64096
2018-06-21T07:16:40.146Z,64416
2018-06-21T07:17:40.215Z,82080
2018-06-21T07:18:40.156Z,65376
2018-06-21T07:19:40.139Z,62048
2018-06-21T07:20:40.106Z,61056
2018-06-21T07:21:40.190Z,66624
2018-06-21T07:22:40.156Z,59424
2018-06-21T07:23:40.161Z,58048
2018-06-21T07:24:40.215Z,64224
2018-06-21T07:25:40.196Z,67328
2018-06-21T07:26:40.076Z,63840
2018-06-21T07:27:40.056Z,62944
2018-06-21T07:28:40.127Z,66112
2018-06-21T07:29:40.092Z,57856
2018-06-21T07:30:40.125Z,60032
2018-06-21T07:31:40.115Z,42112
2018-06-21T07:32:40.082Z,34144
2018-06-21T07:33:40.142Z,34080
2018-06-21T07:34:40.066Z,39424
2018-06-21T07:35:40.128Z,43968
2018-06-21T07:36:40.132Z,49184
2018-06-21T07:37:40.195Z,51328
2018-06-21T07:38:40.135Z,51072
2018-06-21T07:39:40.201Z,43040
2018-06-21T07:40:40.198Z,40608
2018-06-21T07:41:40.141Z,41664
2018-06-21T07:42:40.133Z,43776
2018-06-21T07:43:40.134Z,45440
2018-06-21T07:44:40.140Z,41728
2018-06-21T07:45:40.203Z,33632
2018-06-21T07:46:40.230Z,30784
2018-06-21T07:47:40.170Z,34816
2018-06-21T07:48:40.226Z,34496
2018-06-21T07:50:40.241Z,22432
2018-06-21T07:51:40.238Z,16376
2018-06-21T07:52:40.177Z,14068
2018-06-21T07:53:40.177Z,14104
2018-06-21T07:54:40.116Z,13568
2018-06-21T07:55:40.204Z,10612
2018-06-21T07:56:40.079Z,8756
2018-06-21T07:57:40.079Z,7684
2018-06-21T07:58:40.138Z,7544
2018-06-21T07:59:40.146Z,10284
2018-06-21T08:00:40.110Z,13608
2018-06-21T08:01:40.147Z,15392
2018-06-21T08:02:40.190Z,20128
2018-06-21T08:03:40.136Z,24704
2018-06-21T08:04:40.199Z,24576
2018-06-21T08:05:40.202Z,20996
2018-06-21T08:06:40.152Z,16200
2018-06-21T08:07:40.121Z,11648
2018-06-21T08:08:40.207Z,10320
2018-06-21T08:09:40.156Z,11392
2018-06-21T08:10:40.213Z,12000
2018-06-21T08:11:40.175Z,9908
2018-06-21T08:12:40.157Z,7516
2018-06-21T08:13:40.204Z,7996
2018-06-21T08:14:40.212Z,8180
2018-06-21T08:15:40.209Z,9032
2018-06-21T08:16:40.195Z,9952
2018-06-21T08:17:40.228Z,11168
2018-06-21T08:18:40.251Z,13584
2018-06-21T08:19:40.257Z,16392
2018-06-21T08:20:40.260Z,17948
2018-06-21T08:21:40.135Z,17972
2018-06-21T08:22:40.132Z,16144
2018-06-21T08:23:40.265Z,17084
2018-06-21T08:24:40.205Z,19224
2018-06-21T08:25:40.226Z,21012
2018-06-21T08:26:40.248Z,14824
2018-06-21T08:27:40.169Z,10468
2018-06-21T08:28:40.233Z,12720
2018-06-21T08:29:40.234Z,17908
2018-06-21T08:30:40.237Z,23840
2018-06-21T08:31:40.165Z,33152
2018-06-21T08:32:40.165Z,43904
2018-06-21T08:33:40.167Z,41728
2018-06-21T08:34:40.173Z,39744
2018-06-21T08:35:40.240Z,38976
2018-06-21T08:36:40.140Z,41920
2018-06-21T08:37:40.117Z,45248
2018-06-21T08:38:40.188Z,44768
2018-06-21T08:39:40.137Z,40192
2018-06-21T08:40:40.180Z,34496
2018-06-21T08:41:40.097Z,31360
2018-06-21T08:42:40.138Z,31680
2018-06-21T08:43:40.187Z,29792
2018-06-21T08:44:40.144Z,29632
2018-06-21T08:45:40.213Z,24864
2018-06-21T08:46:40.234Z,14160
2018-06-21T08:47:40.178Z,12548
2018-06-21T08:48:40.202Z,14436
2018-06-21T08:49:40.246Z,10844
2018-06-21T08:50:40.238Z,13424
2018-06-21T08:51:40.182Z,9528
2018-06-21T08:52:40.248Z,8856
2018-06-21T08:53:40.247Z,9012
2018-06-21T08:54:40.185Z,11308
2018-06-21T08:55:40.271Z,13220
2018-06-21T08:56:40.241Z,19060
2018-06-21T08:57:40.184Z,22048
2018-06-21T08:58:40.184Z,22496
2018-06-21T08:59:40.183Z,22176
2018-06-21T09:00:40.186Z,22784
2018-06-21T09:01:40.252Z,23264
2018-06-21T09:02:40.218Z,25728
2018-06-21T09:03:40.285Z,26720
2018-06-21T09:04:40.261Z,24448
2018-06-21T09:05:40.190Z,23904
2018-06-21T09:06:40.255Z,20232
2018-06-21T09:07:40.145Z,19880
2018-06-21T09:08:40.243Z,22304
2018-06-21T09:09:40.247Z,19572
2018-06-21T09:10:40.182Z,26144
2018-06-21T09:11:40.238Z,31232
2018-06-21T09:12:40.219Z,36992
2018-06-21T09:13:40.130Z,37216
2018-06-21T09:14:40.246Z,34304
2018-06-21T09:15:40.201Z,33856
2018-06-21T09:16:40.224Z,38080
2018-06-21T09:17:40.167Z,41632
2018-06-21T09:18:40.296Z,43776
2018-06-21T09:19:40.230Z,39232
2018-06-21T09:20:40.167Z,37792
2018-06-21T09:21:40.301Z,39968
2018-06-21T09:22:40.309Z,42240
2018-06-21T09:23:40.230Z,40608
2018-06-21T09:24:40.285Z,36192
2018-06-21T09:25:40.307Z,30528
2018-06-21T09:26:40.236Z,35488
2018-06-21T09:27:40.235Z,52448
2018-06-21T09:28:40.272Z,45120
2018-06-21T09:29:40.291Z,38912
2018-06-21T09:30:40.308Z,30400
2018-06-21T09:31:40.303Z,27648
2018-06-21T09:32:40.240Z,28544
2018-06-21T09:33:40.233Z,27456
2018-06-21T09:34:40.297Z,25504
2018-06-21T09:35:40.302Z,22912
2018-06-21T09:36:40.177Z,21196
2018-06-21T09:37:40.312Z,20824
2018-06-21T09:38:40.239Z,22912
2018-06-21T09:39:40.251Z,25024
2018-06-21T09:40:40.298Z,27264
2018-06-21T09:41:40.180Z,30656
2018-06-21T09:42:40.236Z,36192
2018-06-21T09:43:50.296Z,45088
2018-06-21T09:44:40.242Z,55744
2018-06-21T09:45:40.281Z,70848
2018-06-21T09:46:40.219Z,142272
2018-06-21T09:47:40.241Z,115808
2018-06-21T09:48:40.283Z,147424
2018-06-21T09:49:40.189Z,84288
2018-06-21T09:50:40.266Z,92832
2018-06-21T09:51:40.307Z,221024
2018-06-21T09:52:40.247Z,102592
2018-06-21T09:53:40.260Z,174400
2018-06-21T09:54:40.302Z,103424
2018-06-21T09:55:40.246Z,99072
2018-06-21T09:56:40.284Z,125184
2018-06-21T09:57:40.227Z,107072
2018-06-21T09:58:40.246Z,67904
2018-06-21T09:59:40.271Z,73920
2018-06-21T10:00:40.195Z,71424
2018-06-21T10:01:40.257Z,50752
2018-06-21T10:02:40.311Z,42784
2018-06-21T10:03:40.294Z,36576
2018-06-21T10:04:40.260Z,35936
2018-06-21T10:05:40.195Z,32928
2018-06-21T10:06:40.321Z,31360
2018-06-21T10:07:40.232Z,33856
2018-06-21T10:08:40.231Z,41696
2018-06-21T10:09:40.299Z,46304
2018-06-21T10:10:40.229Z,43264
2018-06-21T10:11:40.234Z,37440
2018-06-21T10:12:40.237Z,33376
2018-06-21T10:13:40.194Z,30400
2018-06-21T10:14:40.234Z,29280
2018-06-21T10:15:40.326Z,30368
2018-06-21T10:16:40.302Z,32224
2018-06-21T10:17:40.244Z,34080
2018-06-21T10:18:40.307Z,40000
2018-06-21T10:19:40.308Z,44992
2018-06-21T10:20:40.240Z,50816
2018-06-21T10:21:40.237Z,55552
2018-06-21T10:22:40.305Z,49504
2018-06-21T10:23:40.236Z,50176
2018-06-21T10:24:40.308Z,57280
2018-06-21T10:25:40.241Z,65440
2018-06-21T10:26:40.310Z,67200
2018-06-21T10:27:40.335Z,63616
2018-06-21T10:28:40.345Z,64640
2018-06-21T10:29:40.344Z,78112
2018-06-21T10:30:40.310Z,124768
2018-06-21T10:31:40.216Z,109056
2018-06-21T10:32:40.344Z,160576
2018-06-21T10:33:40.252Z,183968
2018-06-21T10:34:40.316Z,87136
2018-06-21T10:35:40.341Z,212800
2018-06-21T10:36:40.285Z,203680
2018-06-21T10:37:40.256Z,232160
2018-06-21T10:38:40.322Z,168256
2018-06-21T10:39:40.318Z,178368
2018-06-21T10:40:40.253Z,183904
2018-06-21T10:41:40.331Z,180928
2018-06-21T10:42:40.351Z,123584
2018-06-21T10:43:40.322Z,116800
2018-06-21T10:44:40.250Z,148576
2018-06-21T10:45:40.320Z,104864
2018-06-21T10:46:40.257Z,166592
2018-06-21T10:47:40.336Z,156608
2018-06-21T10:48:40.261Z,166688
2018-06-21T10:49:40.345Z,206688
2018-06-21T10:50:40.285Z,139520
2018-06-21T10:51:40.355Z,177120
2018-06-21T10:52:40.298Z,190016
2018-06-21T10:53:40.365Z,210624
2018-06-21T10:54:40.360Z,156352
2018-06-21T10:55:40.360Z,151040
2018-06-21T10:56:40.283Z,143520
2018-06-21T10:57:40.259Z,141280
2018-06-21T10:58:40.264Z,167296
2018-06-21T10:59:40.330Z,171072
2018-06-21T11:00:40.337Z,154880
2018-06-21T11:01:40.347Z,117504
2018-06-21T11:02:40.266Z,89632
2018-06-21T11:03:40.346Z,93920
2018-06-21T11:04:40.270Z,96576
2018-06-21T11:05:40.338Z,118976
2018-06-21T11:06:40.272Z,123872
2018-06-21T11:07:40.270Z,110016
2018-06-21T11:08:40.388Z,104320
2018-06-21T11:09:40.351Z,100032
2018-06-21T11:10:40.274Z,94976
2018-06-21T11:11:40.273Z,89120
2018-06-21T11:12:40.342Z,83616
2018-06-21T11:13:40.278Z,77888
2018-06-21T11:14:40.360Z,71808
2018-06-21T11:15:40.292Z,67584
2018-06-21T11:16:40.362Z,66400
2018-06-21T11:17:40.377Z,65632
2018-06-21T11:18:40.313Z,64768
2018-06-21T11:19:40.374Z,64064
2018-06-21T11:20:40.250Z,64320
2018-06-21T11:21:40.307Z,65504
2018-06-21T11:22:40.378Z,63840
2018-06-21T11:23:40.312Z,63904
2018-06-21T11:24:40.376Z,64672
2018-06-21T11:25:40.317Z,63136
2018-06-21T11:26:40.413Z,62912
2018-06-21T11:27:40.343Z,69152
2018-06-21T11:28:40.276Z,101856
2018-06-21T11:29:40.285Z,187744
2018-06-21T11:30:40.351Z,194720
2018-06-21T11:31:40.351Z,93664
2018-06-21T11:32:40.354Z,53920
2018-06-21T11:33:40.293Z,29216
2018-06-21T11:34:40.285Z,25888
2018-06-21T11:35:40.352Z,30784
2018-06-21T11:36:40.292Z,24992
2018-06-21T11:37:40.354Z,24608
2018-06-21T11:38:40.298Z,32000
2018-06-21T11:39:40.357Z,172544
2018-06-21T11:40:40.363Z,172064
2018-06-21T11:41:40.359Z,172704
2018-06-21T11:42:40.294Z,174112
2018-06-21T11:43:40.295Z,54656
2018-06-21T11:44:40.325Z,50208
2018-06-21T11:45:40.294Z,180224
2018-06-21T11:46:40.423Z,177536
2018-06-21T11:47:40.361Z,183296
2018-06-21T11:48:40.294Z,186112
2018-06-21T11:49:40.367Z,52224
2018-06-21T11:50:40.297Z,43136
2018-06-21T11:51:40.303Z,42016
2018-06-21T11:52:40.366Z,67872
2018-06-21T11:53:40.298Z,87808
2018-06-21T11:54:40.365Z,106048
2018-06-21T11:55:40.327Z,171264
2018-06-21T11:56:40.300Z,167744
2018-06-21T11:57:40.339Z,164224
2018-06-21T11:58:40.346Z,160448
2018-06-21T11:59:40.327Z,156256
2018-06-21T12:00:40.315Z,149696
2018-06-21T12:01:40.431Z,155456
2018-06-21T12:02:40.398Z,159168
2018-06-21T12:03:40.336Z,160512
2018-06-21T12:04:40.379Z,164832
2018-06-21T12:05:40.416Z,165184
2018-06-21T12:06:40.417Z,170304
2018-06-21T12:07:40.362Z,171488
2018-06-21T12:08:40.305Z,179328
2018-06-21T12:09:40.242Z,187264
2018-06-21T12:10:40.312Z,48448
2018-06-21T12:11:40.301Z,32672
2018-06-21T12:12:40.270Z,31488
2018-06-21T12:13:40.312Z,176704
2018-06-21T12:14:40.251Z,38304
2018-06-21T12:15:40.254Z,55520
2018-06-21T12:16:40.280Z,35712
2018-06-21T12:17:40.413Z,176480
2018-06-21T12:18:40.430Z,173696
2018-06-21T12:19:40.385Z,172448
2018-06-21T12:20:40.360Z,169184
2018-06-21T12:21:40.364Z,167520
2018-06-21T12:22:40.289Z,166272
2018-06-21T12:23:40.364Z,166912
2018-06-21T12:24:40.362Z,167008
2018-06-21T12:25:40.362Z,167648
2018-06-21T12:26:40.392Z,167104
2018-06-21T12:27:40.326Z,166112
2018-06-21T12:28:40.316Z,165856
2018-06-21T12:29:40.296Z,170752
2018-06-21T12:30:40.368Z,161056
2018-06-21T12:31:40.352Z,172192
2018-06-21T12:32:40.360Z,171040
2018-06-21T12:33:40.303Z,168000
2018-06-21T12:34:40.417Z,166752
2018-06-21T12:35:40.352Z,166528
2018-06-21T12:36:40.436Z,163456
2018-06-21T12:37:40.343Z,161248
2018-06-21T12:38:40.304Z,157920
2018-06-21T12:39:40.300Z,154624
2018-06-21T12:40:40.343Z,153088
2018-06-21T12:41:40.300Z,155776
2018-06-21T12:42:40.345Z,157824
2018-06-21T12:43:40.305Z,161376
2018-06-21T12:44:40.347Z,160416
2018-06-21T12:45:40.344Z,160064
2018-06-21T12:46:40.361Z,157568
2018-06-21T12:47:40.335Z,156416
2018-06-21T12:48:40.341Z,155232
2018-06-21T12:49:40.341Z,156256
2018-06-21T12:50:40.408Z,157568
2018-06-21T12:51:40.406Z,160576
2018-06-21T12:52:40.347Z,166176
2018-06-21T12:53:40.443Z,173728
2018-06-21T12:54:40.411Z,178592
2018-06-21T12:55:40.343Z,177344
2018-06-21T12:56:40.343Z,172064
2018-06-21T12:57:40.438Z,169312
2018-06-21T12:58:40.388Z,170976
2018-06-21T12:59:40.443Z,170816
2018-06-21T13:00:40.363Z,176224
2018-06-21T13:01:40.380Z,58464
2018-06-21T13:02:40.437Z,181824
2018-06-21T13:03:40.414Z,176032
2018-06-21T13:04:40.420Z,174848
2018-06-21T13:05:40.394Z,176928
2018-06-21T13:06:40.322Z,52032
2018-06-21T13:07:40.419Z,176256
2018-06-21T13:08:40.454Z,179232
2018-06-21T13:09:40.337Z,179584
2018-06-21T13:10:40.444Z,177408
2018-06-21T13:11:40.383Z,54400
2018-06-21T13:12:40.390Z,45568
2018-06-21T13:13:40.399Z,43072
2018-06-21T13:14:40.329Z,40512
2018-06-21T13:15:40.424Z,39648
2018-06-21T13:16:40.422Z,37600
2018-06-21T13:17:40.389Z,36544
2018-06-21T13:18:40.346Z,176064
2018-06-21T13:20:40.441Z,119808
2018-06-21T13:21:40.329Z,40960
2018-06-21T13:22:40.398Z,162304
2018-06-21T13:23:40.463Z,158464